sensor_id;sensor_type;location;lat;lon;timestamp;temperature;humidity
21502;DHT22;27639;48.674;9.242;2023-05-13T00:00:32;15.80;60.70
21502;DHT22;27639;48.674;9.242;2023-05-13T00:02:58;15.80;60.90
21502;DHT22;27639;48.674;9.242;2023-05-13T00:05:23;15.80;60.90
21502;DHT22;27639;48.674;9.242;2023-05-13T00:07:49;15.70;61.00
21502;DHT22;27639;48.674;9.242;2023-05-13T00:10:14;15.80;61.10
21502;DHT22;27639;48.674;9.242;2023-05-13T00:12:40;15.80;61.10
21502;DHT22;27639;48.674;9.242;2023-05-13T00:15:06;15.80;61.00
21502;DHT22;27639;48.674;9.242;2023-05-13T00:17:32;15.80;61.10
21502;DHT22;27639;48.674;9.242;2023-05-13T00:19:58;15.80;61.10
21502;DHT22;27639;48.674;9.242;2023-05-13T00:22:23;15.70;61.00
21502;DHT22;27639;48.674;9.242;2023-05-13T00:24:49;15.80;61.40
21502;DHT22;27639;48.674;9.242;2023-05-13T00:27:14;15.70;61.50
21502;DHT22;27639;48.674;9.242;2023-05-13T00:29:40;15.70;61.60
21502;DHT22;27639;48.674;9.242;2023-05-13T00:32:06;15.70;61.60
21502;DHT22;27639;48.674;9.242;2023-05-13T00:34:31;15.70;61.50
21502;DHT22;27639;48.674;9.242;2023-05-13T00:36:57;15.70;61.80
21502;DHT22;27639;48.674;9.242;2023-05-13T00:39:23;15.70;61.60
21502;DHT22;27639;48.674;9.242;2023-05-13T00:41:48;15.70;61.80
21502;DHT22;27639;48.674;9.242;2023-05-13T00:44:14;15.70;61.80
21502;DHT22;27639;48.674;9.242;2023-05-13T00:46:40;15.60;61.80
21502;DHT22;27639;48.674;9.242;2023-05-13T00:49:06;15.60;61.90
21502;DHT22;27639;48.674;9.242;2023-05-13T00:51:31;15.60;61.90
21502;DHT22;27639;48.674;9.242;2023-05-13T00:53:58;15.60;61.90
21502;DHT22;27639;48.674;9.242;2023-05-13T00:56:24;15.70;61.80
21502;DHT22;27639;48.674;9.242;2023-05-13T00:58:50;15.60;61.70
21502;DHT22;27639;48.674;9.242;2023-05-13T01:04:08;15.60;61.90
21502;DHT22;27639;48.674;9.242;2023-05-13T01:09:26;15.60;62.10
21502;DHT22;27639;48.674;9.242;2023-05-13T01:11:56;15.60;61.90
21502;DHT22;27639;48.674;9.242;2023-05-13T01:14:32;15.50;62.10
21502;DHT22;27639;48.674;9.242;2023-05-13T01:17:01;15.50;62.00
21502;DHT22;27639;48.674;9.242;2023-05-13T01:19:45;15.60;62.10
21502;DHT22;27639;48.674;9.242;2023-05-13T01:22:11;15.50;61.80
21502;DHT22;27639;48.674;9.242;2023-05-13T01:24:37;15.50;62.10
21502;DHT22;27639;48.674;9.242;2023-05-13T01:27:03;15.50;62.00
21502;DHT22;27639;48.674;9.242;2023-05-13T01:29:29;15.50;62.10
21502;DHT22;27639;48.674;9.242;2023-05-13T01:31:55;15.50;62.10
21502;DHT22;27639;48.674;9.242;2023-05-13T01:34:22;15.50;62.00
21502;DHT22;27639;48.674;9.242;2023-05-13T01:36:49;15.50;62.00
21502;DHT22;27639;48.674;9.242;2023-05-13T01:39:15;15.50;62.10
21502;DHT22;27639;48.674;9.242;2023-05-13T01:41:42;15.40;62.10
21502;DHT22;27639;48.674;9.242;2023-05-13T01:44:09;15.50;62.30
21502;DHT22;27639;48.674;9.242;2023-05-13T01:46:37;15.50;62.20
21502;DHT22;27639;48.674;9.242;2023-05-13T01:49:02;15.50;62.00
21502;DHT22;27639;48.674;9.242;2023-05-13T01:51:28;15.50;62.10
21502;DHT22;27639;48.674;9.242;2023-05-13T01:53:54;15.50;62.00
21502;DHT22;27639;48.674;9.242;2023-05-13T01:56:19;15.40;61.90
21502;DHT22;27639;48.674;9.242;2023-05-13T01:58:46;15.40;62.00
21502;DHT22;27639;48.674;9.242;2023-05-13T02:01:12;15.40;62.00
21502;DHT22;27639;48.674;9.242;2023-05-13T02:03:37;15.50;62.10
21502;DHT22;27639;48.674;9.242;2023-05-13T02:06:03;15.40;61.90
21502;DHT22;27639;48.674;9.242;2023-05-13T02:08:28;15.40;62.00
21502;DHT22;27639;48.674;9.242;2023-05-13T02:10:56;15.40;61.90
21502;DHT22;27639;48.674;9.242;2023-05-13T02:13:22;15.40;61.80
21502;DHT22;27639;48.674;9.242;2023-05-13T02:15:47;15.40;61.80
21502;DHT22;27639;48.674;9.242;2023-05-13T02:18:13;15.40;61.90
21502;DHT22;27639;48.674;9.242;2023-05-13T02:20:39;15.40;61.90
21502;DHT22;27639;48.674;9.242;2023-05-13T02:23:04;15.40;61.70
21502;DHT22;27639;48.674;9.242;2023-05-13T02:25:30;15.30;61.80
21502;DHT22;27639;48.674;9.242;2023-05-13T02:27:55;15.30;61.80
21502;DHT22;27639;48.674;9.242;2023-05-13T02:30:21;15.30;61.60
21502;DHT22;27639;48.674;9.242;2023-05-13T02:32:53;15.30;61.70
21502;DHT22;27639;48.674;9.242;2023-05-13T02:35:20;15.30;61.60
21502;DHT22;27639;48.674;9.242;2023-05-13T02:37:47;15.20;61.40
21502;DHT22;27639;48.674;9.242;2023-05-13T02:40:13;15.30;61.30
21502;DHT22;27639;48.674;9.242;2023-05-13T02:42:39;15.20;61.00
21502;DHT22;27639;48.674;9.242;2023-05-13T02:45:05;15.10;61.30
21502;DHT22;27639;48.674;9.242;2023-05-13T02:47:31;15.10;61.20
21502;DHT22;27639;48.674;9.242;2023-05-13T02:49:57;15.10;61.40
21502;DHT22;27639;48.674;9.242;2023-05-13T02:52:22;15.10;61.50
21502;DHT22;27639;48.674;9.242;2023-05-13T02:54:48;15.20;61.60
21502;DHT22;27639;48.674;9.242;2023-05-13T02:57:14;15.20;61.60
21502;DHT22;27639;48.674;9.242;2023-05-13T02:59:39;15.20;61.60
21502;DHT22;27639;48.674;9.242;2023-05-13T03:02:05;15.20;61.70
21502;DHT22;27639;48.674;9.242;2023-05-13T03:04:30;15.20;61.60
21502;DHT22;27639;48.674;9.242;2023-05-13T03:06:56;15.20;62.20
21502;DHT22;27639;48.674;9.242;2023-05-13T03:09:22;15.20;61.50
21502;DHT22;27639;48.674;9.242;2023-05-13T03:11:47;15.30;61.50
21502;DHT22;27639;48.674;9.242;2023-05-13T03:14:13;15.30;61.50
21502;DHT22;27639;48.674;9.242;2023-05-13T03:16:39;15.30;61.30
21502;DHT22;27639;48.674;9.242;2023-05-13T03:19:04;15.30;61.10
21502;DHT22;27639;48.674;9.242;2023-05-13T03:21:30;15.30;61.10
21502;DHT22;27639;48.674;9.242;2023-05-13T03:23:56;15.20;61.00
21502;DHT22;27639;48.674;9.242;2023-05-13T03:26:21;15.20;60.70
21502;DHT22;27639;48.674;9.242;2023-05-13T03:28:47;15.20;60.80
21502;DHT22;27639;48.674;9.242;2023-05-13T03:31:12;15.20;60.70
21502;DHT22;27639;48.674;9.242;2023-05-13T03:33:38;15.10;60.70
21502;DHT22;27639;48.674;9.242;2023-05-13T03:36:04;15.10;60.80
21502;DHT22;27639;48.674;9.242;2023-05-13T03:38:31;15.10;60.80
21502;DHT22;27639;48.674;9.242;2023-05-13T03:40:56;15.10;60.60
21502;DHT22;27639;48.674;9.242;2023-05-13T03:43:22;15.10;60.50
21502;DHT22;27639;48.674;9.242;2023-05-13T03:45:48;15.00;60.50
21502;DHT22;27639;48.674;9.242;2023-05-13T03:48:14;15.00;60.60
21502;DHT22;27639;48.674;9.242;2023-05-13T03:50:40;15.00;60.60
21502;DHT22;27639;48.674;9.242;2023-05-13T03:53:06;15.00;61.20
21502;DHT22;27639;48.674;9.242;2023-05-13T03:55:31;15.00;60.70
21502;DHT22;27639;48.674;9.242;2023-05-13T03:57:57;15.00;60.60
21502;DHT22;27639;48.674;9.242;2023-05-13T04:00:23;15.00;60.60
21502;DHT22;27639;48.674;9.242;2023-05-13T04:02:49;15.00;60.60
21502;DHT22;27639;48.674;9.242;2023-05-13T04:05:14;14.90;60.50
21502;DHT22;27639;48.674;9.242;2023-05-13T04:07:40;15.00;60.50
21502;DHT22;27639;48.674;9.242;2023-05-13T04:10:07;15.00;60.70
21502;DHT22;27639;48.674;9.242;2023-05-13T04:12:32;15.00;60.80
21502;DHT22;27639;48.674;9.242;2023-05-13T04:14:58;15.00;60.60
21502;DHT22;27639;48.674;9.242;2023-05-13T04:17:24;15.00;60.60
21502;DHT22;27639;48.674;9.242;2023-05-13T04:19:53;15.00;60.40
21502;DHT22;27639;48.674;9.242;2023-05-13T04:22:20;15.00;60.40
21502;DHT22;27639;48.674;9.242;2023-05-13T04:24:46;15.00;60.40
21502;DHT22;27639;48.674;9.242;2023-05-13T04:27:11;14.90;60.30
21502;DHT22;27639;48.674;9.242;2023-05-13T04:29:37;14.90;60.30
21502;DHT22;27639;48.674;9.242;2023-05-13T04:32:02;14.80;60.20
21502;DHT22;27639;48.674;9.242;2023-05-13T04:34:28;14.90;60.50
21502;DHT22;27639;48.674;9.242;2023-05-13T04:36:54;14.90;60.60
21502;DHT22;27639;48.674;9.242;2023-05-13T04:39:19;14.90;60.40
21502;DHT22;27639;48.674;9.242;2023-05-13T04:41:45;14.90;60.60
21502;DHT22;27639;48.674;9.242;2023-05-13T04:44:10;14.90;60.30
21502;DHT22;27639;48.674;9.242;2023-05-13T04:46:36;14.90;60.30
21502;DHT22;27639;48.674;9.242;2023-05-13T04:49:05;14.90;60.30
21502;DHT22;27639;48.674;9.242;2023-05-13T04:51:30;14.90;60.30
21502;DHT22;27639;48.674;9.242;2023-05-13T04:53:57;14.90;60.30
21502;DHT22;27639;48.674;9.242;2023-05-13T04:56:23;14.80;60.10
21502;DHT22;27639;48.674;9.242;2023-05-13T04:58:48;14.80;60.20
21502;DHT22;27639;48.674;9.242;2023-05-13T05:01:14;14.80;60.20
21502;DHT22;27639;48.674;9.242;2023-05-13T05:03:40;14.80;60.20
21502;DHT22;27639;48.674;9.242;2023-05-13T05:06:05;14.80;60.00
21502;DHT22;27639;48.674;9.242;2023-05-13T05:08:31;14.80;60.10
21502;DHT22;27639;48.674;9.242;2023-05-13T05:10:58;14.80;60.20
21502;DHT22;27639;48.674;9.242;2023-05-13T05:13:24;14.80;60.40
21502;DHT22;27639;48.674;9.242;2023-05-13T05:15:49;14.80;60.40
21502;DHT22;27639;48.674;9.242;2023-05-13T05:18:15;14.80;60.50
21502;DHT22;27639;48.674;9.242;2023-05-13T05:20:41;14.90;61.40
21502;DHT22;27639;48.674;9.242;2023-05-13T05:23:06;14.90;60.20
21502;DHT22;27639;48.674;9.242;2023-05-13T05:25:33;14.90;60.10
21502;DHT22;27639;48.674;9.242;2023-05-13T05:27:59;14.90;59.90
21502;DHT22;27639;48.674;9.242;2023-05-13T05:30:24;14.90;59.90
21502;DHT22;27639;48.674;9.242;2023-05-13T05:32:50;14.80;59.80
21502;DHT22;27639;48.674;9.242;2023-05-13T05:35:16;14.90;59.90
21502;DHT22;27639;48.674;9.242;2023-05-13T05:37:44;14.90;59.90
21502;DHT22;27639;48.674;9.242;2023-05-13T05:40:10;14.90;60.00
21502;DHT22;27639;48.674;9.242;2023-05-13T05:42:35;14.80;59.70
21502;DHT22;27639;48.674;9.242;2023-05-13T05:45:02;14.90;59.80
21502;DHT22;27639;48.674;9.242;2023-05-13T05:47:27;14.90;59.90
21502;DHT22;27639;48.674;9.242;2023-05-13T05:49:53;14.90;59.90
21502;DHT22;27639;48.674;9.242;2023-05-13T05:52:19;14.90;59.90
21502;DHT22;27639;48.674;9.242;2023-05-13T05:54:44;14.90;59.80
21502;DHT22;27639;48.674;9.242;2023-05-13T05:57:10;14.90;59.80
21502;DHT22;27639;48.674;9.242;2023-05-13T05:59:36;15.00;59.80
21502;DHT22;27639;48.674;9.242;2023-05-13T06:02:01;14.90;59.60
21502;DHT22;27639;48.674;9.242;2023-05-13T06:04:27;15.00;59.70
21502;DHT22;27639;48.674;9.242;2023-05-13T06:06:52;15.00;59.60
21502;DHT22;27639;48.674;9.242;2023-05-13T06:09:18;15.00;59.40
21502;DHT22;27639;48.674;9.242;2023-05-13T06:11:43;14.90;59.50
21502;DHT22;27639;48.674;9.242;2023-05-13T06:14:09;14.90;59.30
21502;DHT22;27639;48.674;9.242;2023-05-13T06:16:34;14.90;59.10
21502;DHT22;27639;48.674;9.242;2023-05-13T06:19:00;14.90;59.40
21502;DHT22;27639;48.674;9.242;2023-05-13T06:21:25;14.90;59.50
21502;DHT22;27639;48.674;9.242;2023-05-13T06:23:51;14.90;59.60
21502;DHT22;27639;48.674;9.242;2023-05-13T06:26:16;14.90;59.60
21502;DHT22;27639;48.674;9.242;2023-05-13T06:28:42;15.00;59.70
21502;DHT22;27639;48.674;9.242;2023-05-13T06:31:07;14.90;59.80
21502;DHT22;27639;48.674;9.242;2023-05-13T06:33:33;15.00;59.50
21502;DHT22;27639;48.674;9.242;2023-05-13T06:35:59;15.00;59.20
21502;DHT22;27639;48.674;9.242;2023-05-13T06:38:24;15.00;59.40
21502;DHT22;27639;48.674;9.242;2023-05-13T06:40:50;15.00;59.60
21502;DHT22;27639;48.674;9.242;2023-05-13T06:43:15;15.10;59.50
21502;DHT22;27639;48.674;9.242;2023-05-13T06:45:42;15.10;59.50
21502;DHT22;27639;48.674;9.242;2023-05-13T06:48:08;15.20;59.60
21502;DHT22;27639;48.674;9.242;2023-05-13T06:50:33;15.30;59.50
21502;DHT22;27639;48.674;9.242;2023-05-13T06:52:59;15.30;59.40
21502;DHT22;27639;48.674;9.242;2023-05-13T06:55:24;15.30;59.10
21502;DHT22;27639;48.674;9.242;2023-05-13T06:57:50;15.30;59.20
21502;DHT22;27639;48.674;9.242;2023-05-13T07:00:16;15.30;59.10
21502;DHT22;27639;48.674;9.242;2023-05-13T07:02:42;15.40;59.00
21502;DHT22;27639;48.674;9.242;2023-05-13T07:05:09;15.40;59.10
21502;DHT22;27639;48.674;9.242;2023-05-13T07:07:35;15.40;59.20
21502;DHT22;27639;48.674;9.242;2023-05-13T07:10:01;15.50;58.80
21502;DHT22;27639;48.674;9.242;2023-05-13T07:12:26;15.50;58.70
21502;DHT22;27639;48.674;9.242;2023-05-13T07:14:52;15.50;59.20
21502;DHT22;27639;48.674;9.242;2023-05-13T07:17:18;15.60;58.90
21502;DHT22;27639;48.674;9.242;2023-05-13T07:19:43;15.70;58.90
21502;DHT22;27639;48.674;9.242;2023-05-13T07:22:09;15.70;58.80
21502;DHT22;27639;48.674;9.242;2023-05-13T07:24:34;15.70;58.50
21502;DHT22;27639;48.674;9.242;2023-05-13T07:27:00;15.80;58.60
21502;DHT22;27639;48.674;9.242;2023-05-13T07:29:26;15.90;58.70
21502;DHT22;27639;48.674;9.242;2023-05-13T07:31:51;16.00;58.40
21502;DHT22;27639;48.674;9.242;2023-05-13T07:34:18;16.10;58.80
21502;DHT22;27639;48.674;9.242;2023-05-13T07:36:43;16.10;58.60
21502;DHT22;27639;48.674;9.242;2023-05-13T07:39:09;16.10;58.10
21502;DHT22;27639;48.674;9.242;2023-05-13T07:41:35;16.20;57.90
21502;DHT22;27639;48.674;9.242;2023-05-13T07:44:01;16.30;58.30
21502;DHT22;27639;48.674;9.242;2023-05-13T07:46:26;16.30;57.80
21502;DHT22;27639;48.674;9.242;2023-05-13T07:48:52;16.40;57.90
21502;DHT22;27639;48.674;9.242;2023-05-13T07:51:18;16.40;57.50
21502;DHT22;27639;48.674;9.242;2023-05-13T07:53:43;16.30;57.20
21502;DHT22;27639;48.674;9.242;2023-05-13T07:56:11;16.30;57.30
21502;DHT22;27639;48.674;9.242;2023-05-13T07:58:37;16.30;57.50
21502;DHT22;27639;48.674;9.242;2023-05-13T08:01:02;16.30;57.30
21502;DHT22;27639;48.674;9.242;2023-05-13T08:03:29;16.30;57.40
21502;DHT22;27639;48.674;9.242;2023-05-13T08:05:55;16.30;57.50
21502;DHT22;27639;48.674;9.242;2023-05-13T08:08:21;16.30;57.70
21502;DHT22;27639;48.674;9.242;2023-05-13T08:10:46;16.20;57.60
21502;DHT22;27639;48.674;9.242;2023-05-13T08:13:12;16.30;57.80
21502;DHT22;27639;48.674;9.242;2023-05-13T08:15:37;16.30;57.70
21502;DHT22;27639;48.674;9.242;2023-05-13T08:18:03;16.20;57.70
21502;DHT22;27639;48.674;9.242;2023-05-13T08:20:29;16.20;57.40
21502;DHT22;27639;48.674;9.242;2023-05-13T08:22:58;16.20;57.80
21502;DHT22;27639;48.674;9.242;2023-05-13T08:25:23;16.20;58.00
21502;DHT22;27639;48.674;9.242;2023-05-13T08:27:49;16.20;58.20
21502;DHT22;27639;48.674;9.242;2023-05-13T08:30:15;16.30;57.80
21502;DHT22;27639;48.674;9.242;2023-05-13T08:32:40;16.40;57.70
21502;DHT22;27639;48.674;9.242;2023-05-13T08:35:06;16.40;56.90
21502;DHT22;27639;48.674;9.242;2023-05-13T08:37:32;16.20;57.20
21502;DHT22;27639;48.674;9.242;2023-05-13T08:39:57;16.30;57.20
21502;DHT22;27639;48.674;9.242;2023-05-13T08:42:28;16.20;56.80
21502;DHT22;27639;48.674;9.242;2023-05-13T08:44:57;16.10;57.00
21502;DHT22;27639;48.674;9.242;2023-05-13T08:47:53;16.10;57.00
21502;DHT22;27639;48.674;9.242;2023-05-13T08:50:18;16.10;57.60
21502;DHT22;27639;48.674;9.242;2023-05-13T08:52:44;16.00;57.80
21502;DHT22;27639;48.674;9.242;2023-05-13T08:55:10;16.00;57.70
21502;DHT22;27639;48.674;9.242;2023-05-13T08:57:36;16.10;58.00
21502;DHT22;27639;48.674;9.242;2023-05-13T09:00:03;16.10;58.00
21502;DHT22;27639;48.674;9.242;2023-05-13T09:02:29;16.10;58.00
21502;DHT22;27639;48.674;9.242;2023-05-13T09:04:57;16.10;58.00
21502;DHT22;27639;48.674;9.242;2023-05-13T09:07:24;16.10;57.70
21502;DHT22;27639;48.674;9.242;2023-05-13T09:09:50;16.10;57.90
21502;DHT22;27639;48.674;9.242;2023-05-13T09:12:44;16.10;57.80
21502;DHT22;27639;48.674;9.242;2023-05-13T09:15:21;16.10;57.60
21502;DHT22;27639;48.674;9.242;2023-05-13T09:20:21;16.10;57.80
21502;DHT22;27639;48.674;9.242;2023-05-13T09:22:56;16.10;58.20
21502;DHT22;27639;48.674;9.242;2023-05-13T09:25:22;16.10;58.20
21502;DHT22;27639;48.674;9.242;2023-05-13T09:27:55;16.10;58.10
21502;DHT22;27639;48.674;9.242;2023-05-13T09:30:27;16.10;57.90
21502;DHT22;27639;48.674;9.242;2023-05-13T09:35:49;16.10;57.90
21502;DHT22;27639;48.674;9.242;2023-05-13T09:38:35;16.10;58.20
21502;DHT22;27639;48.674;9.242;2023-05-13T09:41:04;16.20;58.40
21502;DHT22;27639;48.674;9.242;2023-05-13T09:43:33;16.20;58.90
21502;DHT22;27639;48.674;9.242;2023-05-13T09:46:03;16.30;58.40
21502;DHT22;27639;48.674;9.242;2023-05-13T09:48:31;16.30;58.30
21502;DHT22;27639;48.674;9.242;2023-05-13T09:50:56;16.40;58.30
21502;DHT22;27639;48.674;9.242;2023-05-13T09:53:23;16.50;58.10
21502;DHT22;27639;48.674;9.242;2023-05-13T09:55:54;16.50;58.10
21502;DHT22;27639;48.674;9.242;2023-05-13T09:58:20;16.60;57.90
21502;DHT22;27639;48.674;9.242;2023-05-13T10:00:47;16.60;57.60
21502;DHT22;27639;48.674;9.242;2023-05-13T10:03:13;16.60;57.70
21502;DHT22;27639;48.674;9.242;2023-05-13T10:05:40;16.60;57.80
21502;DHT22;27639;48.674;9.242;2023-05-13T10:08:10;16.60;57.40
21502;DHT22;27639;48.674;9.242;2023-05-13T10:10:37;16.50;57.50
21502;DHT22;27639;48.674;9.242;2023-05-13T10:13:04;16.60;57.70
21502;DHT22;27639;48.674;9.242;2023-05-13T10:15:31;16.60;57.80
21502;DHT22;27639;48.674;9.242;2023-05-13T10:17:58;16.60;57.90
21502;DHT22;27639;48.674;9.242;2023-05-13T10:20:24;16.60;57.80
21502;DHT22;27639;48.674;9.242;2023-05-13T10:22:54;16.60;58.60
21502;DHT22;27639;48.674;9.242;2023-05-13T10:25:20;16.60;57.80
21502;DHT22;27639;48.674;9.242;2023-05-13T10:27:47;16.60;57.50
21502;DHT22;27639;48.674;9.242;2023-05-13T10:30:14;16.70;57.50
21502;DHT22;27639;48.674;9.242;2023-05-13T10:32:42;16.60;57.40
21502;DHT22;27639;48.674;9.242;2023-05-13T10:35:17;16.60;57.80
21502;DHT22;27639;48.674;9.242;2023-05-13T10:43:24;16.60;57.30
21502;DHT22;27639;48.674;9.242;2023-05-13T10:46:03;16.60;57.40
21502;DHT22;27639;48.674;9.242;2023-05-13T10:48:48;16.50;57.60
21502;DHT22;27639;48.674;9.242;2023-05-13T10:51:13;16.50;57.50
21502;DHT22;27639;48.674;9.242;2023-05-13T10:53:45;16.30;57.80
21502;DHT22;27639;48.674;9.242;2023-05-13T10:56:11;16.50;57.80
21502;DHT22;27639;48.674;9.242;2023-05-13T10:58:37;16.50;57.90
21502;DHT22;27639;48.674;9.242;2023-05-13T11:03:54;16.50;57.80
21502;DHT22;27639;48.674;9.242;2023-05-13T11:06:22;16.40;57.80
21502;DHT22;27639;48.674;9.242;2023-05-13T11:08:51;16.40;57.80
21502;DHT22;27639;48.674;9.242;2023-05-13T11:13:51;16.40;57.10
21502;DHT22;27639;48.674;9.242;2023-05-13T11:16:17;16.50;57.00
21502;DHT22;27639;48.674;9.242;2023-05-13T11:18:43;16.50;57.50
21502;DHT22;27639;48.674;9.242;2023-05-13T11:21:09;16.60;57.40
21502;DHT22;27639;48.674;9.242;2023-05-13T11:23:55;16.50;57.10
21502;DHT22;27639;48.674;9.242;2023-05-13T11:26:22;16.60;57.30
21502;DHT22;27639;48.674;9.242;2023-05-13T11:29:04;16.70;57.20
21502;DHT22;27639;48.674;9.242;2023-05-13T11:31:52;16.80;56.60
21502;DHT22;27639;48.674;9.242;2023-05-13T11:34:20;16.70;56.80
21502;DHT22;27639;48.674;9.242;2023-05-13T11:39:23;16.80;56.10
21502;DHT22;27639;48.674;9.242;2023-05-13T11:41:51;16.70;56.70
21502;DHT22;27639;48.674;9.242;2023-05-13T11:44:19;16.80;56.70
21502;DHT22;27639;48.674;9.242;2023-05-13T11:46:56;16.80;56.50
21502;DHT22;27639;48.674;9.242;2023-05-13T11:52:12;16.80;56.60
21502;DHT22;27639;48.674;9.242;2023-05-13T11:54:49;16.90;56.80
21502;DHT22;27639;48.674;9.242;2023-05-13T11:57:18;16.90;57.10
21502;DHT22;27639;48.674;9.242;2023-05-13T12:00:04;16.90;57.40
21502;DHT22;27639;48.674;9.242;2023-05-13T12:02:35;17.10;56.70
21502;DHT22;27639;48.674;9.242;2023-05-13T12:05:10;17.10;56.70
21502;DHT22;27639;48.674;9.242;2023-05-13T12:07:37;17.20;56.90
21502;DHT22;27639;48.674;9.242;2023-05-13T12:10:05;17.20;56.90
21502;DHT22;27639;48.674;9.242;2023-05-13T12:12:33;17.40;56.20
21502;DHT22;27639;48.674;9.242;2023-05-13T12:15:06;17.50;56.40
21502;DHT22;27639;48.674;9.242;2023-05-13T12:17:33;17.70;56.10
21502;DHT22;27639;48.674;9.242;2023-05-13T12:28:22;17.80;54.60
21502;DHT22;27639;48.674;9.242;2023-05-13T12:33:25;17.60;54.70
21502;DHT22;27639;48.674;9.242;2023-05-13T12:35:53;17.70;54.80
21502;DHT22;27639;48.674;9.242;2023-05-13T12:38:21;17.60;55.10
21502;DHT22;27639;48.674;9.242;2023-05-13T12:40:47;17.50;55.20
21502;DHT22;27639;48.674;9.242;2023-05-13T12:43:15;17.50;54.60
21502;DHT22;27639;48.674;9.242;2023-05-13T12:45:43;17.60;54.60
21502;DHT22;27639;48.674;9.242;2023-05-13T12:48:09;17.40;55.60
21502;DHT22;27639;48.674;9.242;2023-05-13T12:50:36;17.50;55.20
21502;DHT22;27639;48.674;9.242;2023-05-13T12:53:02;17.50;55.20
21502;DHT22;27639;48.674;9.242;2023-05-13T12:55:27;17.60;55.30
21502;DHT22;27639;48.674;9.242;2023-05-13T12:58:03;17.60;55.40
21502;DHT22;27639;48.674;9.242;2023-05-13T13:00:29;17.70;55.80
21502;DHT22;27639;48.674;9.242;2023-05-13T13:02:55;17.70;55.70
21502;DHT22;27639;48.674;9.242;2023-05-13T13:05:22;17.90;55.60
21502;DHT22;27639;48.674;9.242;2023-05-13T13:07:48;18.00;55.60
21502;DHT22;27639;48.674;9.242;2023-05-13T13:10:14;18.10;55.00
21502;DHT22;27639;48.674;9.242;2023-05-13T13:12:40;18.10;54.70
21502;DHT22;27639;48.674;9.242;2023-05-13T13:15:07;18.20;54.60
21502;DHT22;27639;48.674;9.242;2023-05-13T13:17:33;18.30;54.10
21502;DHT22;27639;48.674;9.242;2023-05-13T13:19:59;18.20;53.60
21502;DHT22;27639;48.674;9.242;2023-05-13T13:22:25;18.20;53.90
21502;DHT22;27639;48.674;9.242;2023-05-13T13:24:51;18.10;54.20
21502;DHT22;27639;48.674;9.242;2023-05-13T13:27:17;18.20;53.90
21502;DHT22;27639;48.674;9.242;2023-05-13T13:29:42;18.10;53.70
21502;DHT22;27639;48.674;9.242;2023-05-13T13:32:08;18.10;54.50
21502;DHT22;27639;48.674;9.242;2023-05-13T13:34:34;18.00;54.50
21502;DHT22;27639;48.674;9.242;2023-05-13T13:36:59;18.00;55.10
21502;DHT22;27639;48.674;9.242;2023-05-13T13:39:25;18.00;55.00
21502;DHT22;27639;48.674;9.242;2023-05-13T13:41:51;18.00;54.90
21502;DHT22;27639;48.674;9.242;2023-05-13T13:44:16;17.90;55.00
21502;DHT22;27639;48.674;9.242;2023-05-13T13:46:42;18.00;54.50
21502;DHT22;27639;48.674;9.242;2023-05-13T13:49:07;17.90;54.30
21502;DHT22;27639;48.674;9.242;2023-05-13T13:51:33;17.70;54.40
21502;DHT22;27639;48.674;9.242;2023-05-13T13:54:07;17.80;54.50
21502;DHT22;27639;48.674;9.242;2023-05-13T13:56:36;17.70;54.70
21502;DHT22;27639;48.674;9.242;2023-05-13T13:59:02;17.60;54.60
21502;DHT22;27639;48.674;9.242;2023-05-13T14:01:27;17.70;54.60
21502;DHT22;27639;48.674;9.242;2023-05-13T14:04:09;17.70;54.20
21502;DHT22;27639;48.674;9.242;2023-05-13T14:06:35;17.60;54.60
21502;DHT22;27639;48.674;9.242;2023-05-13T14:09:00;17.60;55.00
21502;DHT22;27639;48.674;9.242;2023-05-13T14:11:26;17.60;55.10
21502;DHT22;27639;48.674;9.242;2023-05-13T14:13:52;17.60;54.60
21502;DHT22;27639;48.674;9.242;2023-05-13T14:16:17;17.60;55.30
21502;DHT22;27639;48.674;9.242;2023-05-13T14:18:43;17.60;55.30
21502;DHT22;27639;48.674;9.242;2023-05-13T14:21:08;17.50;55.40
21502;DHT22;27639;48.674;9.242;2023-05-13T14:23:34;17.50;55.70
21502;DHT22;27639;48.674;9.242;2023-05-13T14:25:59;17.40;55.70
21502;DHT22;27639;48.674;9.242;2023-05-13T14:28:25;17.50;55.90
21502;DHT22;27639;48.674;9.242;2023-05-13T14:30:51;17.50;55.70
21502;DHT22;27639;48.674;9.242;2023-05-13T14:33:16;17.60;55.20
21502;DHT22;27639;48.674;9.242;2023-05-13T14:35:42;17.60;55.20
21502;DHT22;27639;48.674;9.242;2023-05-13T14:38:07;17.50;55.50
21502;DHT22;27639;48.674;9.242;2023-05-13T14:40:34;17.50;55.30
21502;DHT22;27639;48.674;9.242;2023-05-13T14:43:00;17.60;55.20
21502;DHT22;27639;48.674;9.242;2023-05-13T14:45:25;17.60;54.90
21502;DHT22;27639;48.674;9.242;2023-05-13T14:47:51;17.50;55.30
21502;DHT22;27639;48.674;9.242;2023-05-13T14:50:18;17.40;55.60
21502;DHT22;27639;48.674;9.242;2023-05-13T14:52:44;17.40;55.90
21502;DHT22;27639;48.674;9.242;2023-05-13T14:55:10;17.40;56.00
21502;DHT22;27639;48.674;9.242;2023-05-13T14:57:36;17.40;56.10
21502;DHT22;27639;48.674;9.242;2023-05-13T15:00:02;17.40;56.20
21502;DHT22;27639;48.674;9.242;2023-05-13T15:02:28;17.50;56.30
21502;DHT22;27639;48.674;9.242;2023-05-13T15:04:54;17.50;56.30
21502;DHT22;27639;48.674;9.242;2023-05-13T15:07:19;17.50;56.20
21502;DHT22;27639;48.674;9.242;2023-05-13T15:09:45;17.50;56.00
21502;DHT22;27639;48.674;9.242;2023-05-13T15:12:10;17.50;56.30
21502;DHT22;27639;48.674;9.242;2023-05-13T15:14:36;17.50;56.00
21502;DHT22;27639;48.674;9.242;2023-05-13T15:17:01;17.50;56.30
21502;DHT22;27639;48.674;9.242;2023-05-13T15:19:27;17.50;56.40
21502;DHT22;27639;48.674;9.242;2023-05-13T15:21:52;17.60;56.50
21502;DHT22;27639;48.674;9.242;2023-05-13T15:24:18;17.70;56.10
21502;DHT22;27639;48.674;9.242;2023-05-13T15:26:44;17.70;56.20
21502;DHT22;27639;48.674;9.242;2023-05-13T15:29:09;17.70;56.40
21502;DHT22;27639;48.674;9.242;2023-05-13T15:31:35;17.60;56.40
21502;DHT22;27639;48.674;9.242;2023-05-13T15:34:01;17.60;56.40
21502;DHT22;27639;48.674;9.242;2023-05-13T15:36:27;17.60;56.40
21502;DHT22;27639;48.674;9.242;2023-05-13T15:38:53;17.70;56.40
21502;DHT22;27639;48.674;9.242;2023-05-13T15:41:18;17.90;56.30
21502;DHT22;27639;48.674;9.242;2023-05-13T15:43:44;17.90;56.10
21502;DHT22;27639;48.674;9.242;2023-05-13T15:46:09;18.00;55.70
21502;DHT22;27639;48.674;9.242;2023-05-13T15:48:35;18.10;55.60
21502;DHT22;27639;48.674;9.242;2023-05-13T15:51:00;18.10;55.80
21502;DHT22;27639;48.674;9.242;2023-05-13T15:53:28;18.20;55.40
21502;DHT22;27639;48.674;9.242;2023-05-13T15:55:53;18.20;55.30
21502;DHT22;27639;48.674;9.242;2023-05-13T15:58:19;18.20;55.20
21502;DHT22;27639;48.674;9.242;2023-05-13T16:00:45;18.30;55.00
21502;DHT22;27639;48.674;9.242;2023-05-13T16:03:10;18.20;55.10
21502;DHT22;27639;48.674;9.242;2023-05-13T16:05:36;18.20;55.30